Terminal Aerodrome Forecast
Issued by NWS

Home | Current Version | Previous Version | Text Only | Print | Product List | Glossary On
Versions: 1 2 3 4 5 6 7 8 9 10 11 12 13 14 15 16 17 18 19 20
658
FTUS42 KGSP 251137
TAFAND
TAF
KAND 251137Z 2512/2612 21007KT P6SM SCT045
     FM251300 22008KT P6SM SCT025 BKN035
     FM251500 26012G21KT P6SM BKN080
     FM251700 26014G23KT P6SM SCT200
     FM260000 28010KT P6SM SKC
     FM260700 29006KT P6SM SKC=

USA.gov is the U.S. government's official web portal to all federal, state and local government web resources and services.